createdAt,value
2023-05-04T00:02:21.357Z,5.09
2023-05-04T00:05:23.536Z,5.11
2023-05-04T00:08:12.570Z,5.06
2023-05-04T00:11:06.517Z,4.97
2023-05-04T00:13:54.167Z,4.90
2023-05-04T00:16:27.148Z,4.85
2023-05-04T00:18:54.401Z,4.75
2023-05-04T00:21:21.323Z,4.72
2023-05-04T00:23:48.251Z,4.69
2023-05-04T00:26:15.195Z,4.65
2023-05-04T00:28:42.345Z,4.62
2023-05-04T00:31:09.310Z,4.55
2023-05-04T00:33:36.442Z,4.58
2023-05-04T00:36:04.575Z,4.52
2023-05-04T00:38:31.538Z,4.51
2023-05-04T00:40:59.271Z,4.44
2023-05-04T00:43:26.974Z,4.41
2023-05-04T00:45:53.959Z,4.40
2023-05-04T00:48:21.047Z,4.25
2023-05-04T00:50:48.000Z,4.31
2023-05-04T00:53:14.937Z,4.29
2023-05-04T00:55:41.870Z,4.23
2023-05-04T00:58:12.261Z,4.11
2023-05-04T01:00:39.255Z,4.07
2023-05-04T01:03:06.335Z,4.00
2023-05-04T01:06:04.409Z,3.84
2023-05-04T01:08:54.002Z,3.77
2023-05-04T01:12:01.459Z,3.68
2023-05-04T01:14:52.237Z,3.66
2023-05-04T01:17:35.617Z,3.35
2023-05-04T01:20:02.722Z,3.63
2023-05-04T01:22:30.131Z,3.58
2023-05-04T01:24:57.426Z,3.60
2023-05-04T01:27:36.619Z,3.59
2023-05-04T01:30:15.202Z,3.55
2023-05-04T01:32:43.226Z,3.50
2023-05-04T01:35:12.379Z,3.44
2023-05-04T01:37:40.026Z,3.27
2023-05-04T01:40:07.544Z,3.39
2023-05-04T01:42:34.511Z,3.35
2023-05-04T01:45:02.120Z,3.11
2023-05-04T01:47:29.664Z,3.36
2023-05-04T01:49:56.568Z,3.33
2023-05-04T01:52:23.512Z,3.31
2023-05-04T01:54:50.568Z,3.05
2023-05-04T01:57:17.686Z,3.29
2023-05-04T01:59:44.614Z,3.26
2023-05-04T02:02:11.663Z,3.24
2023-05-04T02:04:38.617Z,3.22
2023-05-04T02:07:05.605Z,3.24
2023-05-04T02:09:32.677Z,3.22
2023-05-04T02:11:59.859Z,2.91
2023-05-04T02:14:26.816Z,3.21
2023-05-04T02:16:53.824Z,3.19
2023-05-04T02:19:20.758Z,3.05
2023-05-04T02:21:48.322Z,3.14
2023-05-04T02:24:15.295Z,3.14
2023-05-04T02:26:42.235Z,3.10
2023-05-04T02:29:09.138Z,3.08
2023-05-04T02:31:36.179Z,3.07
2023-05-04T02:34:03.482Z,3.03
2023-05-04T02:36:30.510Z,3.00
2023-05-04T02:38:59.296Z,2.93
2023-05-04T02:41:27.113Z,2.90
2023-05-04T02:43:54.062Z,2.89
2023-05-04T02:46:21.097Z,2.88
2023-05-04T02:48:48.028Z,2.92
2023-05-04T02:51:14.946Z,2.92
2023-05-04T02:53:41.898Z,2.92
2023-05-04T02:56:08.800Z,2.89
2023-05-04T02:58:35.760Z,2.89
2023-05-04T03:01:02.737Z,2.87
2023-05-04T03:03:29.729Z,2.85
2023-05-04T03:05:56.650Z,2.85
2023-05-04T03:08:23.880Z,2.82
2023-05-04T03:10:50.780Z,2.86
2023-05-04T03:13:17.771Z,2.82
2023-05-04T03:15:44.716Z,2.76
2023-05-04T03:18:11.862Z,2.78
2023-05-04T03:20:38.821Z,2.69
2023-05-04T03:23:06.299Z,2.61
2023-05-04T03:25:33.192Z,2.50
2023-05-04T03:28:00.104Z,2.51
2023-05-04T03:30:27.191Z,2.52
2023-05-04T03:32:54.226Z,2.52
2023-05-04T03:35:24.605Z,2.50
2023-05-04T03:37:52.117Z,2.53
2023-05-04T03:40:24.440Z,2.60
2023-05-04T03:42:52.752Z,2.67
2023-05-04T03:45:19.929Z,2.70
2023-05-04T03:47:46.873Z,2.75
2023-05-04T03:50:13.904Z,2.76
2023-05-04T03:52:40.775Z,2.76
2023-05-04T03:55:08.185Z,2.56
2023-05-04T03:57:35.110Z,2.75
2023-05-04T04:00:02.373Z,2.79
2023-05-04T04:02:29.491Z,2.58
2023-05-04T04:04:56.551Z,2.82
2023-05-04T04:07:23.433Z,2.87
2023-05-04T04:09:50.501Z,2.94
2023-05-04T04:12:18.699Z,2.98
2023-05-04T04:14:45.743Z,3.06
2023-05-04T04:17:12.650Z,3.10
2023-05-04T04:19:39.598Z,3.12
2023-05-04T04:22:06.498Z,3.29
2023-05-04T04:24:33.806Z,3.08
2023-05-04T04:27:00.722Z,3.40
2023-05-04T04:29:27.668Z,3.47
2023-05-04T04:31:54.632Z,3.55
2023-05-04T04:34:22.558Z,3.63
2023-05-04T04:36:50.117Z,3.71
2023-05-04T04:39:17.298Z,3.69
2023-05-04T04:41:44.393Z,3.86
2023-05-04T04:44:11.887Z,4.61
2023-05-04T04:46:39.179Z,5.13
2023-05-04T04:49:06.282Z,6.34
2023-05-04T04:51:33.516Z,7.29
2023-05-04T04:54:00.573Z,7.87
2023-05-04T04:56:27.456Z,8.51
2023-05-04T04:58:54.388Z,9.11
2023-05-04T05:01:21.297Z,9.85
2023-05-04T05:03:49.355Z,10.16
2023-05-04T05:06:16.462Z,10.26
2023-05-04T05:08:44.221Z,10.21
2023-05-04T05:11:11.674Z,10.27
2023-05-04T05:13:38.745Z,10.30
2023-05-04T05:16:06.128Z,10.60
2023-05-04T05:18:33.364Z,11.18
2023-05-04T05:21:01.040Z,11.43
2023-05-04T05:23:27.982Z,11.68
2023-05-04T05:25:56.019Z,11.85
2023-05-04T05:28:23.247Z,12.29
2023-05-04T05:30:52.373Z,12.61
2023-05-04T05:33:19.501Z,12.69
2023-05-04T05:35:46.386Z,13.12
2023-05-04T05:38:13.391Z,13.08
2023-05-04T05:40:40.331Z,12.88
2023-05-04T05:43:07.353Z,14.00
2023-05-04T05:45:34.304Z,13.97
2023-05-04T05:48:01.254Z,14.29
2023-05-04T05:50:28.221Z,14.90
2023-05-04T05:52:55.156Z,14.71
2023-05-04T05:55:22.042Z,14.68
2023-05-04T05:57:48.974Z,15.06
2023-05-04T06:00:16.622Z,15.19
2023-05-04T06:02:43.661Z,15.40
2023-05-04T06:05:11.064Z,15.76
2023-05-04T06:07:38.011Z,15.44
2023-05-04T06:10:05.849Z,15.71
2023-05-04T06:12:32.951Z,15.56
2023-05-04T06:14:59.970Z,15.94
2023-05-04T06:17:26.991Z,15.71
2023-05-04T06:19:53.930Z,15.43
2023-05-04T06:22:20.958Z,14.93
2023-05-04T06:24:47.965Z,14.90
2023-05-04T06:27:14.924Z,14.99
2023-05-04T06:29:41.894Z,15.59
2023-05-04T06:32:10.159Z,16.20
2023-05-04T06:34:37.255Z,16.40
2023-05-04T06:37:04.231Z,16.20
2023-05-04T06:39:31.687Z,15.56
2023-05-04T06:41:58.608Z,15.32
2023-05-04T06:44:25.676Z,14.95
2023-05-04T06:46:52.851Z,14.69
2023-05-04T06:49:19.983Z,15.62
2023-05-04T06:51:47.098Z,16.22
2023-05-04T06:54:14.028Z,16.68
2023-05-04T06:56:41.169Z,16.68
2023-05-04T06:59:10.114Z,16.43
2023-05-04T07:01:37.828Z,16.34
2023-05-04T07:04:05.285Z,16.12
2023-05-04T07:06:32.694Z,16.64
2023-05-04T07:09:00.056Z,16.60
2023-05-04T07:11:28.197Z,16.87
2023-05-04T07:13:55.371Z,17.11
2023-05-04T07:16:22.509Z,16.81
2023-05-04T07:18:49.921Z,16.85
2023-05-04T07:21:27.838Z,16.20
2023-05-04T07:23:56.365Z,16.30
2023-05-04T07:26:23.518Z,16.28
2023-05-04T07:28:50.723Z,15.38
2023-05-04T07:31:17.733Z,14.74
2023-05-04T07:33:44.627Z,14.63
2023-05-04T07:36:11.561Z,15.10
2023-05-04T07:38:38.458Z,14.32
2023-05-04T07:41:05.526Z,15.00
2023-05-04T07:43:32.411Z,14.95
2023-05-04T07:45:59.424Z,15.55
2023-05-04T07:48:26.845Z,15.73
2023-05-04T07:50:54.224Z,15.34
2023-05-04T07:53:21.690Z,15.27
2023-05-04T07:55:48.779Z,14.83
2023-05-04T07:58:16.891Z,14.92
2023-05-04T08:00:44.064Z,14.83
2023-05-04T08:03:11.116Z,14.44
2023-05-04T08:05:38.165Z,14.38
2023-05-04T08:08:05.302Z,14.79
2023-05-04T08:10:35.869Z,15.31
2023-05-04T08:13:02.873Z,15.66
2023-05-04T08:15:29.833Z,15.81
2023-05-04T08:17:56.860Z,15.13
2023-05-04T08:20:24.130Z,15.11
2023-05-04T08:22:51.397Z,14.99
2023-05-04T08:25:18.305Z,15.01
2023-05-04T08:27:46.058Z,14.96
2023-05-04T08:30:13.415Z,15.25
2023-05-04T08:32:40.628Z,15.36
2023-05-04T08:35:08.159Z,15.12
2023-05-04T08:37:35.298Z,15.56
2023-05-04T08:40:02.423Z,15.59
2023-05-04T08:42:33.814Z,15.65
2023-05-04T08:45:01.486Z,16.03
2023-05-04T08:47:29.342Z,15.90
2023-05-04T08:49:59.395Z,15.54
2023-05-04T08:52:27.654Z,16.03
2023-05-04T08:54:56.239Z,16.47
2023-05-04T08:57:24.962Z,16.37
2023-05-04T08:59:56.404Z,16.39
2023-05-04T09:02:24.872Z,16.65
2023-05-04T09:04:52.947Z,16.34
2023-05-04T09:07:21.679Z,16.22
2023-05-04T09:09:51.981Z,15.90
2023-05-04T09:12:19.553Z,16.32
2023-05-04T09:14:46.899Z,16.33
2023-05-04T09:17:18.059Z,15.40
2023-05-04T09:19:45.160Z,16.07
2023-05-04T09:22:20.768Z,16.09
2023-05-04T09:24:47.974Z,15.67
2023-05-04T09:27:18.543Z,15.39
2023-05-04T09:29:54.059Z,15.61
2023-05-04T09:32:21.323Z,15.87
2023-05-04T09:34:52.583Z,15.71
2023-05-04T09:37:21.247Z,16.42
2023-05-04T09:40:00.651Z,16.57
2023-05-04T09:42:28.902Z,16.81
2023-05-04T09:45:04.169Z,16.74
2023-05-04T09:47:33.692Z,16.85
2023-05-04T09:50:22.582Z,16.18
2023-05-04T09:52:50.817Z,16.48
2023-05-04T09:55:21.149Z,16.57
2023-05-04T09:57:50.592Z,16.67
2023-05-04T10:00:18.921Z,16.57
2023-05-04T10:02:47.525Z,16.55
2023-05-04T10:05:18.837Z,16.68
2023-05-04T10:07:46.688Z,16.69
2023-05-04T10:10:15.468Z,16.72
2023-05-04T10:12:44.986Z,16.79
2023-05-04T10:15:13.276Z,16.99
2023-05-04T10:18:01.881Z,16.86
2023-05-04T10:20:57.376Z,16.65
2023-05-04T10:23:44.460Z,16.63
2023-05-04T10:26:47.952Z,16.83
2023-05-04T10:29:35.340Z,17.05
2023-05-04T10:32:02.859Z,16.41
2023-05-04T10:34:31.902Z,16.77
2023-05-04T10:37:00.871Z,16.90
2023-05-04T10:39:33.499Z,17.06
2023-05-04T10:42:04.742Z,16.89
2023-05-04T10:44:33.436Z,16.75
2023-05-04T10:47:09.363Z,16.73
2023-05-04T10:49:36.336Z,17.02
2023-05-04T10:52:21.128Z,17.14
2023-05-04T10:55:03.984Z,17.10
2023-05-04T10:57:31.595Z,17.32
2023-05-04T10:59:59.368Z,17.44
2023-05-04T11:02:29.729Z,17.47
2023-05-04T11:05:06.058Z,17.39
2023-05-04T11:07:40.150Z,17.24
2023-05-04T11:10:09.900Z,17.60
2023-05-04T11:12:38.199Z,17.45
2023-05-04T11:15:14.104Z,17.15
2023-05-04T11:17:48.964Z,17.17
2023-05-04T11:20:23.983Z,17.10
2023-05-04T11:22:51.175Z,17.26
2023-05-04T11:25:26.984Z,17.35
2023-05-04T11:27:54.281Z,17.52
2023-05-04T11:30:22.291Z,17.15
2023-05-04T11:32:54.245Z,16.97
2023-05-04T11:35:25.222Z,17.08
2023-05-04T11:37:53.053Z,17.00
2023-05-04T11:40:22.650Z,16.99
2023-05-04T11:42:52.889Z,17.12
2023-05-04T11:45:23.202Z,17.39
2023-05-04T11:47:51.528Z,17.42
2023-05-04T11:50:20.862Z,17.54
2023-05-04T11:52:48.632Z,17.14
2023-05-04T11:55:31.565Z,16.59
2023-05-04T11:58:09.647Z,16.96
2023-05-04T12:00:46.595Z,17.22
2023-05-04T12:03:17.328Z,17.44
2023-05-04T12:05:48.903Z,17.60
2023-05-04T12:08:31.727Z,17.51
2023-05-04T12:11:25.394Z,17.69
2023-05-04T12:14:07.068Z,17.75
2023-05-04T12:16:34.292Z,17.82
2023-05-04T12:19:06.810Z,17.66
2023-05-04T12:21:35.346Z,17.41
2023-05-04T12:24:03.512Z,17.79
2023-05-04T12:26:30.799Z,17.66
2023-05-04T12:28:57.725Z,17.86
2023-05-04T12:31:25.563Z,17.92
2023-05-04T12:33:52.851Z,17.80
2023-05-04T12:36:19.926Z,17.68
2023-05-04T12:38:46.858Z,17.14
2023-05-04T12:41:14.130Z,17.50
2023-05-04T12:43:41.315Z,17.67
2023-05-04T12:46:08.420Z,17.94
2023-05-04T12:48:35.374Z,17.80
2023-05-04T12:51:04.420Z,17.85
2023-05-04T12:53:32.318Z,18.00
2023-05-04T12:56:00.182Z,18.10
2023-05-04T12:58:27.851Z,18.05
2023-05-04T13:00:56.762Z,17.97
2023-05-04T13:03:24.301Z,18.22
2023-05-04T13:05:51.479Z,18.14
2023-05-04T13:08:19.935Z,18.31
2023-05-04T13:10:47.479Z,18.01
2023-05-04T13:13:17.357Z,17.76
2023-05-04T13:15:45.189Z,17.76
2023-05-04T13:18:13.153Z,17.58
2023-05-04T13:20:41.582Z,17.33
2023-05-04T13:23:08.495Z,17.39
2023-05-04T13:25:35.374Z,17.42
2023-05-04T13:28:02.434Z,17.31
2023-05-04T13:30:29.898Z,17.47
2023-05-04T13:32:56.935Z,17.60
2023-05-04T13:35:24.190Z,17.55
2023-05-04T13:37:51.734Z,17.57
2023-05-04T13:40:18.786Z,17.95
2023-05-04T13:42:45.709Z,18.09
2023-05-04T13:45:13.436Z,18.26
2023-05-04T13:47:40.977Z,18.44
2023-05-04T13:50:08.853Z,18.41
2023-05-04T13:52:36.595Z,17.97
2023-05-04T13:55:04.176Z,17.64
2023-05-04T13:57:31.407Z,17.61
2023-05-04T14:00:07.108Z,17.59
2023-05-04T14:02:35.344Z,17.42
2023-05-04T14:05:04.247Z,17.63
2023-05-04T14:07:31.541Z,17.79
2023-05-04T14:09:59.263Z,17.84
2023-05-04T14:12:26.494Z,17.89
2023-05-04T14:14:53.570Z,17.91
2023-05-04T14:18:08.171Z,17.83
2023-05-04T14:20:35.404Z,17.71
2023-05-04T14:23:02.363Z,17.29
2023-05-04T14:25:29.476Z,17.68
2023-05-04T14:27:56.497Z,18.01
2023-05-04T14:30:23.952Z,18.21
2023-05-04T14:32:55.685Z,18.06
2023-05-04T14:35:22.735Z,18.02
2023-05-04T14:37:49.867Z,17.91
2023-05-04T14:40:17.011Z,17.77
2023-05-04T14:42:43.945Z,17.82
2023-05-04T14:45:11.405Z,17.88
2023-05-04T14:47:38.431Z,17.83
2023-05-04T14:50:06.672Z,17.86
2023-05-04T14:52:33.847Z,17.68
2023-05-04T14:55:00.881Z,17.65
2023-05-04T14:57:27.865Z,17.62
2023-05-04T14:59:55.468Z,17.94
2023-05-04T15:02:22.699Z,18.08
2023-05-04T15:04:49.843Z,17.89
2023-05-04T15:07:19.027Z,17.84
2023-05-04T15:09:46.143Z,17.90
2023-05-04T15:12:13.107Z,17.91
2023-05-04T15:14:40.014Z,17.87
2023-05-04T15:17:08.317Z,17.48
2023-05-04T15:19:39.777Z,17.27
2023-05-04T15:22:07.646Z,17.48
2023-05-04T15:24:34.572Z,17.64
2023-05-04T15:27:02.299Z,17.63
2023-05-04T15:29:29.537Z,17.49
2023-05-04T15:31:56.729Z,17.69
2023-05-04T15:34:23.804Z,17.84
2023-05-04T15:36:50.890Z,17.93
2023-05-04T15:39:17.809Z,17.91
2023-05-04T15:41:44.831Z,17.69
2023-05-04T15:44:11.787Z,17.25
2023-05-04T15:46:38.871Z,17.21
2023-05-04T15:49:05.846Z,17.35
2023-05-04T15:51:32.870Z,17.47
2023-05-04T15:53:59.959Z,17.45
2023-05-04T15:56:30.998Z,17.49
2023-05-04T15:58:57.945Z,17.29
2023-05-04T16:01:24.932Z,17.15
2023-05-04T16:03:55.658Z,16.94
2023-05-04T16:06:23.677Z,17.18
2023-05-04T16:08:50.953Z,17.20
2023-05-04T16:11:18.053Z,17.14
2023-05-04T16:13:45.080Z,17.05
2023-05-04T16:16:12.093Z,16.93
2023-05-04T16:18:39.061Z,16.80
2023-05-04T16:21:06.191Z,16.84
2023-05-04T16:23:33.146Z,16.91
2023-05-04T16:26:00.020Z,16.69
2023-05-04T16:28:29.912Z,16.79
2023-05-04T16:30:58.879Z,16.45
2023-05-04T16:33:27.762Z,16.49
2023-05-04T16:35:54.839Z,16.30
2023-05-04T16:38:21.901Z,16.28
2023-05-04T16:40:48.976Z,16.24
2023-05-04T16:43:16.435Z,16.42
2023-05-04T16:45:43.400Z,16.33
2023-05-04T16:48:10.325Z,16.47
2023-05-04T16:50:37.309Z,16.47
2023-05-04T16:53:04.275Z,16.05
2023-05-04T16:55:31.776Z,15.93
2023-05-04T16:57:58.885Z,15.97
2023-05-04T17:00:26.211Z,15.89
2023-05-04T17:02:53.407Z,15.77
2023-05-04T17:05:21.333Z,15.50
2023-05-04T17:07:48.399Z,15.37
2023-05-04T17:10:15.585Z,15.04
2023-05-04T17:12:42.771Z,14.99
2023-05-04T17:15:11.267Z,14.97
2023-05-04T17:17:38.279Z,14.85
2023-05-04T17:20:06.582Z,14.67
2023-05-04T17:22:33.755Z,14.68
2023-05-04T17:25:00.726Z,14.66
2023-05-04T17:27:27.675Z,14.66
2023-05-04T17:29:54.591Z,14.60
2023-05-04T17:32:21.591Z,14.46
2023-05-04T17:34:48.578Z,14.42
2023-05-04T17:37:15.515Z,14.40
2023-05-04T17:39:42.415Z,14.22
2023-05-04T17:42:10.930Z,14.23
2023-05-04T17:44:37.904Z,14.19
2023-05-04T17:47:04.988Z,14.12
2023-05-04T17:49:32.014Z,14.07
2023-05-04T17:51:59.863Z,13.91
2023-05-04T17:54:26.956Z,13.77
2023-05-04T17:56:54.120Z,13.55
2023-05-04T17:59:23.497Z,13.53
2023-05-04T18:01:50.474Z,13.47
2023-05-04T18:04:17.411Z,13.29
2023-05-04T18:06:44.361Z,13.28
2023-05-04T18:09:11.880Z,13.27
2023-05-04T18:11:38.808Z,13.11
2023-05-04T18:14:05.690Z,13.20
2023-05-04T18:16:36.233Z,13.15
2023-05-04T18:19:03.871Z,13.11
2023-05-04T18:21:30.793Z,13.01
2023-05-04T18:23:57.715Z,12.98
2023-05-04T18:26:24.655Z,12.94
2023-05-04T18:28:51.590Z,12.90
2023-05-04T18:31:19.240Z,12.85
2023-05-04T18:33:46.359Z,12.80
2023-05-04T18:36:13.401Z,12.75
2023-05-04T18:38:41.196Z,12.72
2023-05-04T18:41:10.882Z,12.68
2023-05-04T18:43:37.804Z,12.63
2023-05-04T18:46:08.166Z,12.59
2023-05-04T18:48:35.236Z,12.51
2023-05-04T18:51:02.952Z,12.45
2023-05-04T19:11:55.854Z,12.05
2023-05-04T19:14:23.315Z,12.02
2023-05-04T19:16:50.325Z,12.01
2023-05-04T19:19:17.850Z,11.96
2023-05-04T19:21:44.830Z,11.91
2023-05-04T19:24:11.766Z,11.89
2023-05-04T19:26:39.409Z,11.86
2023-05-04T19:29:06.333Z,11.85
2023-05-04T19:31:33.416Z,11.82
2023-05-04T19:34:01.095Z,11.75
2023-05-04T19:36:28.059Z,11.76
2023-05-04T19:38:55.004Z,11.71
2023-05-04T19:41:22.285Z,11.75
2023-05-04T19:43:49.245Z,11.71
2023-05-04T19:46:16.254Z,11.69
2023-05-04T19:52:11.327Z,11.60
2023-05-04T19:54:41.315Z,11.68
2023-05-04T19:57:08.456Z,11.65
2023-05-04T19:59:35.816Z,11.63
2023-05-04T20:02:02.991Z,11.62
2023-05-04T20:04:29.960Z,11.58
2023-05-04T20:06:56.985Z,11.56
2023-05-04T20:09:23.922Z,11.47
2023-05-04T20:11:51.029Z,11.42
2023-05-04T20:14:18.052Z,11.41
2023-05-04T20:16:45.178Z,11.39
2023-05-04T20:19:12.186Z,11.35
2023-05-04T20:21:39.111Z,11.35
2023-05-04T20:24:06.333Z,11.34
2023-05-04T20:26:33.262Z,11.20
2023-05-04T20:29:00.160Z,11.28
2023-05-04T20:31:27.237Z,11.24
2023-05-04T20:33:54.205Z,11.26
2023-05-04T20:36:21.119Z,11.20
2023-05-04T20:38:48.083Z,11.21
2023-05-04T20:41:14.980Z,11.14
2023-05-04T20:43:41.959Z,11.13
2023-05-04T20:46:08.972Z,11.09
2023-05-04T20:48:35.976Z,11.06
2023-05-04T20:51:13.931Z,11.04
2023-05-04T20:53:42.427Z,11.02
2023-05-04T20:56:09.399Z,11.02
2023-05-04T20:58:36.388Z,11.02
2023-05-04T21:01:04.202Z,11.02
2023-05-04T21:03:31.598Z,10.94
2023-05-04T21:05:59.186Z,10.98
2023-05-04T21:08:27.002Z,10.98
2023-05-04T21:10:53.988Z,10.95
2023-05-04T21:13:21.081Z,10.92
2023-05-04T21:15:48.232Z,10.89
2023-05-04T21:18:15.555Z,10.84
2023-05-04T21:20:42.691Z,10.72
2023-05-04T21:23:09.682Z,10.69
2023-05-04T21:25:36.625Z,10.64
2023-05-04T21:28:03.886Z,10.61
2023-05-04T21:30:30.850Z,10.57
2023-05-04T21:32:57.848Z,10.53
2023-05-04T21:35:24.851Z,10.48
2023-05-04T21:37:52.050Z,10.45
2023-05-04T21:40:19.042Z,10.44
2023-05-04T21:42:45.957Z,10.37
2023-05-04T21:45:12.848Z,10.30
2023-05-04T21:47:40.070Z,10.25
2023-05-04T21:50:07.923Z,10.23
2023-05-04T21:52:35.019Z,10.20
2023-05-04T21:55:01.976Z,10.08
2023-05-04T21:57:32.835Z,10.10
2023-05-04T22:00:00.194Z,10.12
2023-05-04T22:02:27.109Z,10.11
2023-05-04T22:04:54.053Z,10.02
2023-05-04T22:07:20.984Z,10.02
2023-05-04T22:09:47.975Z,9.91
2023-05-04T22:12:15.280Z,9.88
2023-05-04T22:14:42.636Z,9.88
2023-05-04T22:17:09.723Z,9.82
2023-05-04T22:19:36.652Z,9.74
2023-05-04T22:22:03.622Z,9.72
2023-05-04T22:24:30.640Z,9.61
2023-05-04T22:26:57.617Z,9.60
2023-05-04T22:29:24.710Z,9.51
2023-05-04T22:31:51.617Z,9.45
2023-05-04T22:34:18.550Z,9.41
2023-05-04T22:36:45.507Z,9.42
2023-05-04T22:39:12.532Z,9.42
2023-05-04T22:41:39.505Z,9.43
2023-05-04T22:44:07.550Z,9.36
2023-05-04T22:46:34.604Z,9.25
2023-05-04T22:49:01.967Z,9.16
2023-05-04T22:51:29.000Z,9.05
2023-05-04T22:53:56.031Z,8.94
2023-05-04T22:56:23.009Z,8.92
2023-05-04T22:58:49.876Z,8.91
2023-05-04T23:01:18.377Z,8.83
2023-05-04T23:03:45.532Z,8.74
2023-05-04T23:06:12.502Z,8.72
2023-05-04T23:08:39.425Z,8.69
2023-05-04T23:11:06.378Z,8.63
2023-05-04T23:13:34.360Z,8.63
2023-05-04T23:16:01.352Z,8.61
2023-05-04T23:18:28.366Z,8.63
2023-05-04T23:20:55.331Z,8.61
2023-05-04T23:23:22.481Z,8.55
2023-05-04T23:25:49.369Z,8.55
2023-05-04T23:28:16.565Z,8.52
2023-05-04T23:30:43.460Z,8.50
2023-05-04T23:33:10.393Z,8.48
2023-05-04T23:35:37.286Z,8.47
2023-05-04T23:38:04.444Z,8.37
2023-05-04T23:40:31.874Z,8.29
2023-05-04T23:42:58.751Z,8.23
2023-05-04T23:45:25.722Z,8.18
2023-05-04T23:47:53.419Z,8.19
2023-05-04T23:50:20.409Z,8.21
2023-05-04T23:52:47.378Z,8.17
2023-05-04T23:55:14.659Z,8.23
2023-05-04T23:57:44.232Z,8.21
